createdAt,value
2023-05-16T00:00:02.943Z,0
2023-05-16T00:01:03.674Z,0
2023-05-16T00:02:04.431Z,0
2023-05-16T00:03:05.710Z,0
2023-05-16T00:04:05.837Z,0
2023-05-16T00:05:06.108Z,0
2023-05-16T00:06:06.527Z,0
2023-05-16T00:07:07.336Z,0
2023-05-16T00:08:08.242Z,0
2023-05-16T00:09:07.942Z,0
2023-05-16T00:10:08.650Z,0
2023-05-16T00:11:09.000Z,0
2023-05-16T00:12:09.497Z,0
2023-05-16T00:13:10.210Z,0
2023-05-16T00:14:11.199Z,0
2023-05-16T00:15:11.575Z,0
2023-05-16T00:16:12.627Z,0
2023-05-16T00:17:13.526Z,0
2023-05-16T00:18:13.688Z,0
2023-05-16T00:19:14.430Z,0
2023-05-16T00:20:14.043Z,0
2023-05-16T00:21:14.935Z,0
2023-05-16T00:22:15.564Z,0
2023-05-16T00:23:16.071Z,0
2023-05-16T00:24:16.568Z,0
2023-05-16T00:25:17.062Z,0
2023-05-16T00:26:18.152Z,0
2023-05-16T00:27:18.662Z,0
2023-05-16T00:28:19.587Z,0
2023-05-16T00:29:20.152Z,0
2023-05-16T00:30:20.640Z,0
2023-05-16T00:31:21.453Z,0
2023-05-16T00:32:21.519Z,0
2023-05-16T00:33:21.672Z,0
2023-05-16T00:34:22.587Z,0
2023-05-16T00:35:22.986Z,0
2023-05-16T00:36:23.873Z,0
2023-05-16T00:37:23.493Z,0
2023-05-16T00:38:23.777Z,0
2023-05-16T00:39:24.282Z,0
2023-05-16T00:40:25.149Z,0
2023-05-16T00:41:24.995Z,0
2023-05-16T00:42:25.380Z,0
2023-05-16T00:43:26.451Z,0
2023-05-16T00:44:26.981Z,0
2023-05-16T00:45:27.745Z,0
2023-05-16T00:46:28.653Z,0
2023-05-16T00:47:29.634Z,0
2023-05-16T00:48:30.588Z,0
2023-05-16T00:49:31.277Z,0
2023-05-16T00:50:32.403Z,0
2023-05-16T00:51:32.091Z,0
2023-05-16T00:52:33.025Z,0
2023-05-16T00:53:34.132Z,0
2023-05-16T00:54:33.823Z,0
2023-05-16T00:55:34.330Z,0
2023-05-16T00:56:35.166Z,0
2023-05-16T00:57:36.076Z,0
2023-05-16T00:58:36.198Z,0
2023-05-16T00:59:35.951Z,0
2023-05-16T01:00:36.726Z,0
2023-05-16T01:01:37.042Z,0
2023-05-16T01:02:37.594Z,0
2023-05-16T01:03:38.148Z,0
2023-05-16T01:04:37.993Z,0
2023-05-16T01:05:38.965Z,0
2023-05-16T01:06:39.188Z,0
2023-05-16T01:07:39.713Z,0
2023-05-16T01:08:40.430Z,0
2023-05-16T01:09:40.336Z,0
2023-05-16T01:10:40.841Z,0
2023-05-16T01:11:41.580Z,0
2023-05-16T01:12:42.101Z,0
2023-05-16T01:13:42.619Z,0
2023-05-16T01:14:43.350Z,0
2023-05-16T01:15:43.945Z,0
2023-05-16T01:16:44.859Z,0
2023-05-16T01:17:46.017Z,0
2023-05-16T01:18:45.749Z,0
2023-05-16T01:19:46.331Z,0
2023-05-16T01:20:46.849Z,0
2023-05-16T01:21:47.414Z,0
2023-05-16T01:22:48.141Z,0
2023-05-16T01:23:48.913Z,0
2023-05-16T01:24:49.436Z,0
2023-05-16T01:25:49.711Z,0
2023-05-16T01:26:50.733Z,0
2023-05-16T01:27:51.005Z,0
2023-05-16T01:28:51.774Z,0
2023-05-16T01:29:52.336Z,0
2023-05-16T01:30:52.692Z,0
2023-05-16T01:31:53.744Z,0
2023-05-16T01:32:54.685Z,0
2023-05-16T01:33:54.993Z,0
2023-05-16T01:34:54.878Z,0
2023-05-16T01:35:55.236Z,0
2023-05-16T01:36:56.011Z,0
2023-05-16T01:37:56.935Z,0
2023-05-16T01:38:57.850Z,0
2023-05-16T01:39:57.807Z,0
2023-05-16T01:40:58.526Z,0
2023-05-16T01:41:59.452Z,0
2023-05-16T01:42:59.973Z,0
2023-05-16T01:44:00.885Z,0
2023-05-16T01:45:01.446Z,0
2023-05-16T01:46:02.378Z,0
2023-05-16T01:47:03.469Z,0
2023-05-16T01:48:04.643Z,0
2023-05-16T01:49:04.873Z,0
2023-05-16T01:50:05.403Z,0
2023-05-16T01:51:06.091Z,0
2023-05-16T01:52:07.216Z,0
2023-05-16T01:53:07.335Z,0
2023-05-16T01:54:08.031Z,0
2023-05-16T01:55:08.922Z,0
2023-05-16T01:56:09.425Z,0
2023-05-16T01:57:09.904Z,0
2023-05-16T01:58:10.591Z,0
2023-05-16T01:59:11.352Z,0
2023-05-16T02:00:12.328Z,0
2023-05-16T02:01:13.095Z,0
2023-05-16T02:02:13.966Z,0
2023-05-16T02:03:15.181Z,0
2023-05-16T02:04:14.519Z,0
2023-05-16T02:05:15.230Z,0
2023-05-16T02:06:15.729Z,0
2023-05-16T02:07:17.038Z,0
2023-05-16T02:08:17.732Z,0
2023-05-16T02:09:18.837Z,0
2023-05-16T02:10:18.533Z,0
2023-05-16T02:11:19.028Z,0
2023-05-16T02:12:19.546Z,0
2023-05-16T02:13:20.024Z,0
2023-05-16T02:14:20.759Z,0
2023-05-16T02:15:21.356Z,0
2023-05-16T02:16:22.843Z,0
2023-05-16T02:17:22.524Z,0
2023-05-16T02:18:23.692Z,0
2023-05-16T02:19:23.942Z,0
2023-05-16T02:20:23.630Z,0
2023-05-16T02:21:24.313Z,0
2023-05-16T02:22:25.246Z,0
2023-05-16T02:23:26.135Z,0
2023-05-16T02:24:26.650Z,0
2023-05-16T02:25:27.403Z,0
2023-05-16T02:26:28.029Z,0
2023-05-16T02:27:29.050Z,0
2023-05-16T02:28:29.364Z,0
2023-05-16T02:29:30.111Z,0
2023-05-16T02:30:30.671Z,0
2023-05-16T02:31:31.329Z,0
2023-05-16T02:32:32.680Z,0
2023-05-16T02:33:32.532Z,0
2023-05-16T02:34:33.245Z,0
2023-05-16T02:35:34.614Z,0
2023-05-16T02:36:34.413Z,0
2023-05-16T02:37:34.951Z,0
2023-05-16T02:38:35.761Z,0
2023-05-16T02:39:36.477Z,0
2023-05-16T02:40:37.183Z,0
2023-05-16T02:41:37.703Z,0
2023-05-16T02:42:38.627Z,0
2023-05-16T02:43:38.941Z,0
2023-05-16T02:44:39.377Z,0
2023-05-16T02:45:40.458Z,0
2023-05-16T02:46:41.887Z,0
2023-05-16T02:48:42.505Z,0
2023-05-16T02:49:43.218Z,0
2023-05-16T02:50:43.614Z,0
2023-05-16T02:51:44.117Z,0
2023-05-16T02:52:45.311Z,0
2023-05-16T02:53:45.815Z,0
2023-05-16T02:54:48.747Z,0
2023-05-16T02:55:47.186Z,0
2023-05-16T02:56:47.493Z,0
2023-05-16T02:57:47.713Z,0
2023-05-16T02:58:48.618Z,0
2023-05-16T02:59:49.526Z,0
2023-05-16T03:00:50.444Z,0
2023-05-16T03:01:51.511Z,0
2023-05-16T03:02:51.946Z,0
2023-05-16T03:03:52.870Z,0
2023-05-16T03:04:52.034Z,0
2023-05-16T03:05:52.988Z,0
2023-05-16T03:06:54.107Z,0
2023-05-16T03:07:54.681Z,0
2023-05-16T03:08:54.983Z,0
2023-05-16T03:09:55.701Z,0
2023-05-16T03:10:56.457Z,0
2023-05-16T03:11:57.176Z,0
2023-05-16T03:12:57.892Z,0
2023-05-16T03:13:59.685Z,0
2023-05-16T03:14:58.633Z,0
2023-05-16T03:15:59.783Z,0
2023-05-16T03:17:00.730Z,0
2023-05-16T03:18:01.235Z,0
2023-05-16T03:19:02.123Z,0
2023-05-16T03:20:02.171Z,0
2023-05-16T03:21:02.656Z,0
2023-05-16T03:22:02.975Z,0
2023-05-16T03:23:03.937Z,0
2023-05-16T03:24:04.823Z,0
2023-05-16T03:25:05.406Z,0
2023-05-16T03:26:05.906Z,4
2023-05-16T03:27:06.435Z,4
2023-05-16T03:28:06.867Z,4
2023-05-16T03:29:07.532Z,4
2023-05-16T03:30:08.270Z,0
2023-05-16T03:31:09.092Z,0
2023-05-16T03:32:09.972Z,0
2023-05-16T03:33:11.284Z,0
2023-05-16T03:34:11.258Z,0
2023-05-16T03:35:11.798Z,4
2023-05-16T03:36:12.692Z,4
2023-05-16T03:37:12.977Z,4
2023-05-16T03:38:13.848Z,4
2023-05-16T03:39:14.360Z,4
2023-05-16T03:40:14.666Z,8
2023-05-16T03:41:15.163Z,4
2023-05-16T03:42:15.659Z,8
2023-05-16T03:43:16.550Z,4
2023-05-16T03:44:17.314Z,4
2023-05-16T03:45:18.153Z,8
2023-05-16T03:46:19.719Z,8
2023-05-16T03:47:19.788Z,8
2023-05-16T03:48:20.686Z,8
2023-05-16T03:49:21.893Z,8
2023-05-16T03:50:21.841Z,8
2023-05-16T03:51:22.348Z,12
2023-05-16T03:52:23.037Z,8
2023-05-16T03:53:23.770Z,12
2023-05-16T03:54:24.448Z,8
2023-05-16T03:55:25.938Z,12
2023-05-16T03:56:25.938Z,12
2023-05-16T03:57:26.241Z,12
2023-05-16T03:58:27.126Z,12
2023-05-16T03:59:27.404Z,16
2023-05-16T04:00:28.157Z,16
2023-05-16T04:01:28.877Z,16
2023-05-16T04:02:30.130Z,16
2023-05-16T04:03:30.233Z,20
2023-05-16T04:04:30.201Z,20
2023-05-16T04:05:32.229Z,24
2023-05-16T04:06:31.843Z,20
2023-05-16T04:07:34.926Z,24
2023-05-16T04:08:33.045Z,24
2023-05-16T04:09:33.727Z,24
2023-05-16T04:10:34.241Z,24
2023-05-16T04:11:35.366Z,24
2023-05-16T04:12:35.896Z,24
2023-05-16T04:13:36.783Z,20
2023-05-16T04:14:37.793Z,24
2023-05-16T04:15:39.078Z,24
2023-05-16T04:16:40.079Z,24
2023-05-16T04:17:40.071Z,28
2023-05-16T04:18:40.762Z,32
2023-05-16T04:19:41.798Z,28
2023-05-16T04:20:43.826Z,32
2023-05-16T04:21:42.374Z,36
2023-05-16T04:22:43.128Z,40
2023-05-16T04:23:43.649Z,40
2023-05-16T04:24:44.647Z,40
2023-05-16T04:25:45.596Z,40
2023-05-16T04:26:46.136Z,48
2023-05-16T04:27:46.738Z,48
2023-05-16T04:28:46.970Z,48
2023-05-16T04:29:47.515Z,48
2023-05-16T04:30:48.039Z,44
2023-05-16T04:31:49.254Z,40
2023-05-16T04:32:49.006Z,36
2023-05-16T04:33:49.898Z,36
2023-05-16T04:34:51.785Z,36
2023-05-16T04:35:51.893Z,36
2023-05-16T04:36:51.383Z,40
2023-05-16T04:37:51.889Z,40
2023-05-16T04:38:52.730Z,40
2023-05-16T04:39:53.278Z,44
2023-05-16T04:40:53.770Z,44
2023-05-16T04:41:54.681Z,48
2023-05-16T04:42:55.194Z,48
2023-05-16T04:43:55.908Z,44
2023-05-16T04:44:56.622Z,48
2023-05-16T04:45:57.588Z,48
2023-05-16T04:46:59.089Z,52
2023-05-16T04:47:58.947Z,48
2023-05-16T04:48:59.163Z,48
2023-05-16T04:49:59.923Z,48
2023-05-16T04:51:00.725Z,52
2023-05-16T04:52:01.232Z,48
2023-05-16T04:53:02.456Z,48
2023-05-16T04:54:01.971Z,52
2023-05-16T04:55:02.465Z,56
2023-05-16T04:56:03.158Z,64
2023-05-16T04:57:03.487Z,60
2023-05-16T04:58:03.868Z,56
2023-05-16T04:59:04.396Z,60
2023-05-16T05:00:04.851Z,56
2023-05-16T05:01:07.537Z,60
2023-05-16T05:02:06.559Z,68
2023-05-16T05:03:06.602Z,72
2023-05-16T05:04:06.638Z,68
2023-05-16T05:05:07.698Z,64
2023-05-16T05:06:07.662Z,68
2023-05-16T05:07:08.557Z,76
2023-05-16T05:08:09.252Z,80
2023-05-16T05:09:09.663Z,72
2023-05-16T05:10:09.962Z,64
2023-05-16T05:11:11.181Z,56
2023-05-16T05:12:11.680Z,52
2023-05-16T05:13:12.669Z,52
2023-05-16T05:14:13.385Z,52
2023-05-16T05:15:13.682Z,52
2023-05-16T05:16:14.221Z,52
2023-05-16T05:17:15.323Z,56
2023-05-16T05:18:15.590Z,56
2023-05-16T05:19:16.855Z,64
2023-05-16T05:20:17.202Z,64
2023-05-16T05:21:17.721Z,68
2023-05-16T05:22:18.624Z,76
2023-05-16T05:23:19.175Z,76
2023-05-16T05:24:20.141Z,80
2023-05-16T05:25:20.846Z,76
2023-05-16T05:26:21.837Z,72
2023-05-16T05:27:22.513Z,64
2023-05-16T05:28:22.865Z,52
2023-05-16T05:29:23.388Z,48
2023-05-16T05:30:24.325Z,44
2023-05-16T05:31:24.557Z,44
2023-05-16T05:32:24.793Z,52
2023-05-16T05:33:24.997Z,56
2023-05-16T05:34:25.319Z,64
2023-05-16T05:35:26.600Z,76
2023-05-16T05:36:27.042Z,84
2023-05-16T05:37:26.561Z,88
2023-05-16T05:38:27.383Z,92
2023-05-16T05:39:27.628Z,96
2023-05-16T05:40:28.313Z,96
2023-05-16T05:41:28.997Z,100
2023-05-16T05:42:29.260Z,104
2023-05-16T05:43:30.029Z,116
2023-05-16T05:44:30.533Z,128
2023-05-16T05:45:31.584Z,140
2023-05-16T05:46:31.707Z,152
2023-05-16T05:47:33.156Z,164
2023-05-16T05:48:33.134Z,168
2023-05-16T05:49:33.014Z,164
2023-05-16T05:50:33.988Z,164
2023-05-16T05:51:34.715Z,152
2023-05-16T05:52:35.213Z,144
2023-05-16T05:53:35.696Z,132
2023-05-16T05:54:36.455Z,132
2023-05-16T05:55:37.770Z,128
2023-05-16T05:56:37.270Z,132
2023-05-16T05:57:37.784Z,136
2023-05-16T05:58:38.403Z,136
2023-05-16T05:59:39.043Z,140
2023-05-16T06:00:39.755Z,136
2023-05-16T06:01:40.823Z,136
2023-05-16T06:02:41.297Z,132
2023-05-16T06:03:40.945Z,124
2023-05-16T06:04:41.865Z,120
2023-05-16T06:05:43.031Z,120
2023-05-16T06:06:42.913Z,124
2023-05-16T06:07:43.658Z,132
2023-05-16T06:08:44.581Z,140
2023-05-16T06:09:44.866Z,148
2023-05-16T06:10:45.361Z,160
2023-05-16T06:11:46.283Z,172
2023-05-16T06:12:46.760Z,188
2023-05-16T06:13:47.496Z,192
2023-05-16T06:14:47.785Z,208
2023-05-16T06:15:48.462Z,224
2023-05-16T06:16:49.656Z,252
2023-05-16T06:17:50.194Z,276
2023-05-16T06:18:50.429Z,300
2023-05-16T06:19:50.415Z,308
2023-05-16T06:20:51.400Z,304
2023-05-16T06:21:51.114Z,292
2023-05-16T06:22:51.660Z,280
2023-05-16T06:23:52.370Z,268
2023-05-16T06:24:52.886Z,264
2023-05-16T06:25:53.809Z,256
2023-05-16T06:26:54.298Z,252
2023-05-16T06:27:54.594Z,244
2023-05-16T06:28:55.291Z,228
2023-05-16T06:29:55.923Z,216
2023-05-16T06:30:56.671Z,208
2023-05-16T06:31:58.322Z,204
2023-05-16T06:32:58.602Z,204
2023-05-16T06:33:59.404Z,204
2023-05-16T06:34:59.926Z,208
2023-05-16T06:36:01.237Z,212
2023-05-16T06:37:00.693Z,212
2023-05-16T06:38:01.231Z,216
2023-05-16T06:39:01.529Z,232
2023-05-16T06:40:02.373Z,244
2023-05-16T06:41:02.687Z,260
2023-05-16T06:42:07.120Z,292
2023-05-16T06:43:03.651Z,320
2023-05-16T06:44:04.534Z,340
2023-05-16T06:45:05.485Z,332
2023-05-16T06:46:06.491Z,316
2023-05-16T06:47:06.883Z,296
2023-05-16T06:48:09.053Z,264
2023-05-16T06:49:07.391Z,240
2023-05-16T06:50:07.590Z,224
2023-05-16T06:51:08.629Z,216
2023-05-16T06:52:09.532Z,212
2023-05-16T06:53:09.421Z,212
2023-05-16T06:54:10.918Z,208
2023-05-16T06:55:10.582Z,208
2023-05-16T06:56:11.099Z,216
2023-05-16T06:57:12.001Z,220
2023-05-16T06:58:12.469Z,224
2023-05-16T06:59:13.275Z,236
2023-05-16T07:00:14.286Z,248
2023-05-16T07:01:15.303Z,264
2023-05-16T07:02:16.274Z,272
2023-05-16T07:03:17.785Z,272
2023-05-16T07:04:17.893Z,264
2023-05-16T07:05:18.629Z,260
2023-05-16T07:06:18.764Z,252
2023-05-16T07:07:18.894Z,244
2023-05-16T07:08:19.176Z,232
2023-05-16T07:09:19.224Z,228
2023-05-16T07:10:19.834Z,232
2023-05-16T07:11:20.309Z,244
2023-05-16T07:12:21.213Z,272
2023-05-16T07:13:22.111Z,300
2023-05-16T07:14:22.625Z,328
2023-05-16T07:15:23.426Z,364
2023-05-16T07:16:24.556Z,392
2023-05-16T07:17:24.423Z,432
2023-05-16T07:18:25.508Z,484
2023-05-16T07:19:25.691Z,536
2023-05-16T07:20:25.777Z,560
2023-05-16T07:21:26.654Z,548
2023-05-16T07:22:26.546Z,504
2023-05-16T07:23:27.284Z,432
2023-05-16T07:24:28.201Z,368
2023-05-16T07:25:29.028Z,324
2023-05-16T07:26:29.821Z,276
2023-05-16T07:27:32.137Z,232
2023-05-16T07:28:30.627Z,196
2023-05-16T07:29:31.366Z,180
2023-05-16T07:30:31.831Z,168
2023-05-16T07:31:32.641Z,156
2023-05-16T07:32:32.920Z,148
2023-05-16T07:33:33.889Z,136
2023-05-16T07:34:33.797Z,128
2023-05-16T07:35:35.213Z,120
2023-05-16T07:36:35.002Z,116
2023-05-16T07:37:37.034Z,124
2023-05-16T07:38:36.324Z,140
2023-05-16T07:39:37.825Z,148
2023-05-16T07:40:38.881Z,156
2023-05-16T07:41:38.808Z,148
2023-05-16T07:42:39.744Z,140
2023-05-16T07:43:41.591Z,132
2023-05-16T07:44:41.618Z,124
2023-05-16T07:45:42.585Z,124
2023-05-16T07:46:43.760Z,132
2023-05-16T07:47:43.826Z,144
2023-05-16T07:48:44.978Z,160
2023-05-16T07:49:44.876Z,164
2023-05-16T07:50:45.772Z,160
2023-05-16T07:51:45.835Z,160
2023-05-16T07:52:46.568Z,160
2023-05-16T07:53:47.492Z,168
2023-05-16T07:54:48.813Z,180
2023-05-16T07:55:48.592Z,184
2023-05-16T07:56:49.109Z,188
2023-05-16T07:57:50.002Z,192
2023-05-16T07:58:50.983Z,200
2023-05-16T07:59:51.271Z,212
2023-05-16T08:00:51.958Z,236
2023-05-16T08:01:52.868Z,256
2023-05-16T08:02:54.448Z,276
2023-05-16T08:03:54.807Z,296
2023-05-16T08:04:55.147Z,324
2023-05-16T08:05:55.650Z,348
2023-05-16T08:06:55.909Z,360
2023-05-16T08:07:55.800Z,356
2023-05-16T08:08:56.774Z,340
2023-05-16T08:09:57.768Z,316
2023-05-16T08:10:58.693Z,284
2023-05-16T08:11:58.637Z,252
2023-05-16T08:12:59.024Z,232
2023-05-16T08:13:58.758Z,224
2023-05-16T08:14:59.386Z,220
2023-05-16T08:16:00.752Z,228
2023-05-16T08:17:00.880Z,244
2023-05-16T08:18:02.160Z,272
2023-05-16T08:19:02.691Z,300
2023-05-16T08:20:02.710Z,312
2023-05-16T08:21:03.681Z,312
2023-05-16T08:22:05.120Z,320
2023-05-16T08:23:04.827Z,296
2023-05-16T08:24:05.794Z,256
2023-05-16T08:25:06.538Z,220
2023-05-16T08:26:07.286Z,192
2023-05-16T08:27:08.439Z,180
2023-05-16T08:28:08.351Z,172
2023-05-16T08:29:09.088Z,152
2023-05-16T08:30:09.583Z,144
2023-05-16T08:31:10.739Z,168
2023-05-16T08:32:11.735Z,216
2023-05-16T08:33:12.914Z,272
2023-05-16T08:34:13.577Z,320
2023-05-16T08:35:14.299Z,348
2023-05-16T08:36:15.379Z,368
2023-05-16T08:37:17.357Z,416
2023-05-16T08:38:16.144Z,484
2023-05-16T08:39:16.891Z,564
2023-05-16T08:40:17.649Z,584
2023-05-16T08:41:18.751Z,524
2023-05-16T08:42:18.616Z,464
2023-05-16T08:43:19.574Z,400
2023-05-16T08:44:19.503Z,404
2023-05-16T08:45:20.427Z,428
2023-05-16T08:46:20.662Z,476
2023-05-16T08:47:22.246Z,520
2023-05-16T08:48:22.331Z,552
2023-05-16T08:49:22.326Z,592
2023-05-16T08:50:23.453Z,648
2023-05-16T08:51:24.927Z,676
2023-05-16T08:52:24.766Z,660
2023-05-16T08:53:26.647Z,576
2023-05-16T08:54:26.778Z,548
2023-05-16T08:55:26.520Z,548
2023-05-16T08:56:27.059Z,508
2023-05-16T08:57:27.992Z,536
2023-05-16T08:58:28.533Z,596
2023-05-16T08:59:28.850Z,692
2023-05-16T09:00:29.806Z,748
2023-05-16T09:01:30.235Z,780
2023-05-16T09:02:30.370Z,824
2023-05-16T09:03:31.810Z,852
2023-05-16T09:04:33.418Z,816
2023-05-16T09:05:36.061Z,792
2023-05-16T09:06:34.587Z,840
2023-05-16T09:07:49.154Z,916
2023-05-16T09:09:36.248Z,1096
2023-05-16T09:10:36.729Z,1120
2023-05-16T09:11:37.663Z,1060
2023-05-16T09:12:37.826Z,1028
2023-05-16T09:13:38.899Z,1020
2023-05-16T09:14:39.799Z,1076
2023-05-16T09:15:40.702Z,1088
2023-05-16T09:16:41.492Z,1032
2023-05-16T09:17:53.585Z,904
2023-05-16T09:19:44.298Z,808
2023-05-16T09:20:43.888Z,732
2023-05-16T09:21:44.551Z,592
2023-05-16T09:22:45.445Z,448
2023-05-16T09:23:48.737Z,384
2023-05-16T09:24:47.250Z,396
2023-05-16T09:25:48.767Z,388
2023-05-16T09:26:48.856Z,384
2023-05-16T09:27:49.525Z,428
2023-05-16T09:28:50.516Z,464
2023-05-16T09:29:51.399Z,440
2023-05-16T09:30:52.224Z,404
2023-05-16T09:31:53.462Z,356
2023-05-16T09:32:53.354Z,292
2023-05-16T09:33:54.186Z,236
2023-05-16T09:34:55.376Z,232
2023-05-16T09:35:57.493Z,252
2023-05-16T09:36:56.100Z,264
2023-05-16T09:37:56.796Z,256
2023-05-16T09:38:57.882Z,224
2023-05-16T09:39:57.638Z,200
2023-05-16T09:40:58.330Z,188
2023-05-16T09:41:59.303Z,176
2023-05-16T09:43:00.424Z,172
2023-05-16T09:44:00.808Z,172
2023-05-16T09:45:02.177Z,180
2023-05-16T09:46:01.426Z,212
2023-05-16T09:47:02.225Z,244
2023-05-16T09:48:02.076Z,268
2023-05-16T09:49:03.290Z,288
2023-05-16T09:50:04.052Z,296
2023-05-16T09:51:08.250Z,284
2023-05-16T09:52:05.265Z,272
2023-05-16T09:53:05.808Z,280
2023-05-16T09:54:06.830Z,316
2023-05-16T09:55:07.754Z,368
2023-05-16T09:56:08.751Z,376
2023-05-16T09:57:08.982Z,376
2023-05-16T09:58:09.798Z,396
2023-05-16T09:59:10.890Z,440
2023-05-16T10:00:11.606Z,496
2023-05-16T10:01:12.331Z,532
2023-05-16T10:02:13.433Z,536
2023-05-16T10:03:16.410Z,540
2023-05-16T10:04:14.506Z,552
2023-05-16T10:05:14.690Z,556
2023-05-16T10:06:15.441Z,560
2023-05-16T10:07:16.602Z,572
2023-05-16T10:08:17.445Z,612
2023-05-16T10:09:18.494Z,648
2023-05-16T10:10:18.232Z,676
2023-05-16T10:11:19.242Z,744
2023-05-16T10:12:19.545Z,844
2023-05-16T10:13:20.236Z,932
2023-05-16T10:14:21.134Z,952
2023-05-16T10:15:22.055Z,844
2023-05-16T10:16:22.791Z,708
2023-05-16T10:17:22.650Z,640
2023-05-16T10:18:23.606Z,608
2023-05-16T10:19:24.954Z,572
2023-05-16T10:20:25.252Z,572
2023-05-16T10:21:24.959Z,584
2023-05-16T10:22:25.842Z,572
2023-05-16T10:23:26.532Z,568
2023-05-16T10:24:27.910Z,616
2023-05-16T10:25:27.736Z,648
2023-05-16T10:26:28.136Z,612
2023-05-16T10:27:30.398Z,564
2023-05-16T10:28:29.322Z,584
2023-05-16T10:29:33.480Z,632
2023-05-16T10:30:31.176Z,600
2023-05-16T10:31:32.150Z,544
2023-05-16T10:32:33.081Z,504
2023-05-16T10:33:33.785Z,500
2023-05-16T10:34:34.879Z,512
2023-05-16T10:35:35.152Z,484
2023-05-16T10:36:35.700Z,424
2023-05-16T10:37:37.097Z,368
2023-05-16T10:38:37.669Z,312
2023-05-16T10:39:38.458Z,280
2023-05-16T10:40:38.941Z,252
2023-05-16T10:41:39.432Z,228
2023-05-16T10:42:40.368Z,196
2023-05-16T10:43:42.534Z,168
2023-05-16T10:44:48.828Z,148
2023-05-16T10:45:42.641Z,144
2023-05-16T10:46:42.697Z,160
2023-05-16T10:47:43.925Z,184
2023-05-16T10:48:43.911Z,204
2023-05-16T10:49:44.904Z,212
2023-05-16T10:50:45.917Z,196
2023-05-16T10:51:46.646Z,176
2023-05-16T10:52:47.190Z,148
2023-05-16T10:53:48.107Z,128
2023-05-16T10:54:49.086Z,124
2023-05-16T10:55:49.793Z,128
2023-05-16T10:56:50.399Z,136
2023-05-16T10:57:51.304Z,140
2023-05-16T10:58:51.435Z,136
2023-05-16T10:59:52.269Z,132
2023-05-16T11:00:52.857Z,140
2023-05-16T11:01:53.919Z,160
2023-05-16T11:02:54.780Z,180
2023-05-16T11:03:55.452Z,208
2023-05-16T11:04:55.809Z,200
2023-05-16T11:05:56.601Z,216
2023-05-16T11:06:57.491Z,268
2023-05-16T11:07:58.189Z,300
2023-05-16T11:08:58.702Z,400
2023-05-16T11:10:00.034Z,516
2023-05-16T11:10:59.723Z,520
2023-05-16T11:12:00.694Z,464
2023-05-16T11:13:01.346Z,360
2023-05-16T11:14:01.831Z,324
2023-05-16T11:15:02.104Z,352
2023-05-16T11:16:02.979Z,400
2023-05-16T11:17:03.718Z,464
2023-05-16T11:18:03.717Z,576
2023-05-16T11:19:04.932Z,564
2023-05-16T11:20:06.008Z,484
2023-05-16T11:21:06.113Z,436
2023-05-16T11:22:07.075Z,416
2023-05-16T11:23:08.265Z,404
2023-05-16T11:24:08.998Z,460
2023-05-16T11:25:10.987Z,568
2023-05-16T11:26:10.944Z,532
2023-05-16T11:27:11.892Z,476
2023-05-16T11:28:12.407Z,460
2023-05-16T11:29:13.132Z,460
2023-05-16T11:30:14.948Z,464
2023-05-16T11:31:15.016Z,468
2023-05-16T11:32:15.851Z,488
2023-05-16T11:33:16.845Z,524
2023-05-16T11:34:17.857Z,584
2023-05-16T11:35:20.900Z,688
2023-05-16T11:36:27.561Z,684
2023-05-16T11:38:20.379Z,544
2023-05-16T11:39:21.667Z,572
2023-05-16T11:40:21.965Z,520
2023-05-16T11:41:22.852Z,428
2023-05-16T11:42:23.549Z,364
2023-05-16T11:43:24.259Z,304
2023-05-16T11:44:24.815Z,284
2023-05-16T11:45:25.861Z,276
2023-05-16T11:46:25.888Z,264
2023-05-16T11:47:26.957Z,252
2023-05-16T11:48:42.903Z,280
2023-05-16T11:50:28.472Z,320
2023-05-16T11:51:29.742Z,328
2023-05-16T11:52:30.306Z,328
2023-05-16T11:53:31.230Z,284
2023-05-16T11:54:31.408Z,232
2023-05-16T11:55:55.628Z,196
2023-05-16T11:57:33.588Z,232
2023-05-16T11:58:34.207Z,256
2023-05-16T11:59:34.927Z,252
2023-05-16T12:00:35.715Z,252
2023-05-16T12:01:36.514Z,244
2023-05-16T12:02:37.805Z,276
2023-05-16T12:03:38.807Z,328
2023-05-16T12:04:39.652Z,364
2023-05-16T12:05:41.798Z,408
2023-05-16T12:06:40.063Z,444
2023-05-16T12:07:41.179Z,448
2023-05-16T12:08:41.053Z,356
2023-05-16T12:09:41.817Z,312
2023-05-16T12:10:42.708Z,280
2023-05-16T12:11:44.194Z,332
2023-05-16T12:12:44.127Z,336
2023-05-16T12:13:44.354Z,388
2023-05-16T12:14:45.405Z,396
2023-05-16T12:15:45.532Z,396
2023-05-16T12:16:46.449Z,356
2023-05-16T12:17:47.598Z,296
2023-05-16T12:18:49.723Z,284
2023-05-16T12:19:48.545Z,288
2023-05-16T12:20:49.185Z,328
2023-05-16T12:21:50.186Z,316
2023-05-16T12:22:50.712Z,320
2023-05-16T12:23:51.846Z,324
2023-05-16T12:24:51.795Z,336
2023-05-16T12:25:52.970Z,328
2023-05-16T12:26:54.085Z,352
2023-05-16T12:27:56.382Z,384
2023-05-16T12:28:54.333Z,420
2023-05-16T12:29:55.221Z,476
2023-05-16T12:30:56.360Z,548
2023-05-16T12:31:57.451Z,680
2023-05-16T12:32:58.167Z,876
2023-05-16T12:33:58.400Z,960
2023-05-16T12:34:58.984Z,964
2023-05-16T12:36:00.051Z,912
2023-05-16T12:37:00.834Z,936
2023-05-16T12:38:01.561Z,888
2023-05-16T12:39:02.714Z,864
2023-05-16T12:40:02.969Z,880
2023-05-16T12:41:03.872Z,836
2023-05-16T12:42:05.308Z,804
2023-05-16T12:43:05.013Z,800
2023-05-16T12:44:06.090Z,816
2023-05-16T12:45:06.980Z,804
2023-05-16T12:46:07.961Z,796
2023-05-16T12:47:08.354Z,776
2023-05-16T12:48:08.892Z,772
2023-05-16T12:49:09.788Z,748
2023-05-16T12:50:10.488Z,740
2023-05-16T12:51:11.404Z,744
2023-05-16T12:52:12.425Z,712
2023-05-16T12:53:13.580Z,692
2023-05-16T12:54:22.100Z,652
2023-05-16T12:55:22.993Z,604
2023-05-16T12:56:23.690Z,588
2023-05-16T12:57:24.808Z,588
2023-05-16T12:58:25.018Z,616
2023-05-16T12:59:24.902Z,672
2023-05-16T13:00:25.902Z,740
2023-05-16T13:01:26.221Z,780
2023-05-16T13:02:25.993Z,848
2023-05-16T13:03:27.506Z,848
2023-05-16T13:04:28.382Z,840
2023-05-16T13:05:28.498Z,876
2023-05-16T13:06:29.800Z,848
2023-05-16T13:07:29.367Z,900
2023-05-16T13:08:29.469Z,876
2023-05-16T13:09:32.615Z,772
2023-05-16T13:10:31.370Z,788
2023-05-16T13:11:31.048Z,852
2023-05-16T13:12:32.329Z,680
2023-05-16T13:13:46.433Z,584
2023-05-16T13:15:36.042Z,916
2023-05-16T13:16:36.311Z,772
2023-05-16T13:17:36.253Z,944
2023-05-16T13:18:37.808Z,1260
2023-05-16T13:19:38.223Z,1280
2023-05-16T13:20:37.734Z,1164
2023-05-16T13:21:38.643Z,1084
2023-05-16T13:22:38.631Z,1120
2023-05-16T13:23:39.151Z,1120
2023-05-16T13:25:40.101Z,1104
2023-05-16T13:26:39.544Z,1108
2023-05-16T13:27:40.977Z,1028
2023-05-16T13:28:40.909Z,972
2023-05-16T13:29:40.609Z,856
2023-05-16T13:30:41.095Z,744
2023-05-16T13:31:42.043Z,740
2023-05-16T13:32:42.370Z,736
2023-05-16T13:33:42.587Z,664
2023-05-16T13:34:43.560Z,460
2023-05-16T13:35:43.269Z,456
2023-05-16T13:37:00.722Z,472
2023-05-16T13:38:45.589Z,228
2023-05-16T13:39:45.552Z,256
2023-05-16T13:40:47.072Z,252
2023-05-16T13:41:48.636Z,192
2023-05-16T13:42:48.230Z,128
2023-05-16T13:43:48.358Z,124
2023-05-16T13:44:48.478Z,120
2023-05-16T13:45:49.851Z,248
2023-05-16T13:46:49.989Z,308
2023-05-16T13:47:53.800Z,340
2023-05-16T13:48:50.783Z,348
2023-05-16T13:49:51.606Z,352
2023-05-16T13:50:55.195Z,324
2023-05-16T13:51:53.224Z,284
2023-05-16T13:52:54.330Z,260
2023-05-16T13:53:54.671Z,316
2023-05-16T13:54:55.420Z,308
2023-05-16T13:55:55.122Z,296
2023-05-16T13:56:55.825Z,388
2023-05-16T13:57:56.975Z,444
2023-05-16T13:59:18.470Z,464
2023-05-16T14:00:43.969Z,472
2023-05-16T14:02:02.605Z,476
2023-05-16T14:03:02.746Z,480
2023-05-16T14:04:03.842Z,480
2023-05-16T14:06:04.436Z,484
2023-05-16T14:07:05.352Z,496
2023-05-16T14:08:05.635Z,544
2023-05-16T14:09:05.678Z,496
2023-05-16T14:10:06.708Z,508
2023-05-16T14:11:06.927Z,600
2023-05-16T14:12:07.449Z,648
2023-05-16T14:13:08.768Z,708
2023-05-16T14:14:08.533Z,740
2023-05-16T14:15:09.318Z,796
2023-05-16T14:16:09.070Z,856
2023-05-16T14:17:10.052Z,876
2023-05-16T14:18:11.230Z,892
2023-05-16T14:19:11.431Z,896
2023-05-16T14:20:12.198Z,896
2023-05-16T14:21:13.338Z,896
2023-05-16T14:22:13.218Z,892
2023-05-16T14:23:14.241Z,900
2023-05-16T14:24:14.269Z,900
2023-05-16T14:25:15.267Z,916